sensor_id;sensor_type;location;lat;lon;timestamp;pressure;altitude;pressure_sealevel;temperature;humidity
3668;BME280;24099;47.102;15.440;2022-11-30T00:02:15;97607.41;;;2.17;100.00
3668;BME280;24099;47.102;15.440;2022-11-30T00:04:50;97610.84;;;2.18;100.00
3668;BME280;24099;47.102;15.440;2022-11-30T00:07:19;97611.41;;;2.32;100.00
3668;BME280;24099;47.102;15.440;2022-11-30T00:09:52;97612.81;;;2.25;100.00
3668;BME280;24099;47.102;15.440;2022-11-30T00:12:37;97610.81;;;2.29;100.00
3668;BME280;24099;47.102;15.440;2022-11-30T00:15:09;97616.25;;;2.37;100.00
3668;BME280;24099;47.102;15.440;2022-11-30T00:17:45;97610.00;;;2.39;100.00
3668;BME280;24099;47.102;15.440;2022-11-30T00:20:28;97612.22;;;2.22;100.00
3668;BME280;24099;47.102;15.440;2022-11-30T00:23:05;97609.63;;;2.22;100.00
3668;BME280;24099;47.102;15.440;2022-11-30T00:25:40;97614.59;;;2.36;100.00
3668;BME280;24099;47.102;15.440;2022-11-30T00:28:47;97609.72;;;2.42;100.00
3668;BME280;24099;47.102;15.440;2022-11-30T00:31:25;97611.50;;;2.42;100.00
3668;BME280;24099;47.102;15.440;2022-11-30T00:34:11;97606.19;;;2.43;100.00
3668;BME280;24099;47.102;15.440;2022-11-30T00:36:53;97613.03;;;2.45;100.00
3668;BME280;24099;47.102;15.440;2022-11-30T00:39:28;97602.75;;;2.43;100.00
3668;BME280;24099;47.102;15.440;2022-11-30T00:42:07;97609.03;;;2.40;100.00
3668;BME280;24099;47.102;15.440;2022-11-30T00:44:44;97600.91;;;2.34;100.00
3668;BME280;24099;47.102;15.440;2022-11-30T00:47:17;97601.38;;;2.28;100.00
3668;BME280;24099;47.102;15.440;2022-11-30T00:50:15;97607.75;;;2.35;100.00
3668;BME280;24099;47.102;15.440;2022-11-30T00:53:17;97600.91;;;2.34;100.00
3668;BME280;24099;47.102;15.440;2022-11-30T00:56:08;97601.38;;;2.28;100.00
3668;BME280;24099;47.102;15.440;2022-11-30T00:58:58;97609.66;;;2.33;100.00
3668;BME280;24099;47.102;15.440;2022-11-30T01:01:34;97608.47;;;2.37;100.00
3668;BME280;24099;47.102;15.440;2022-11-30T01:04:07;97606.31;;;2.42;100.00
3668;BME280;24099;47.102;15.440;2022-11-30T01:06:37;97602.88;;;2.41;100.00
3668;BME280;24099;47.102;15.440;2022-11-30T01:09:09;97608.91;;;2.42;100.00
3668;BME280;24099;47.102;15.440;2022-11-30T01:11:40;97614.09;;;2.42;100.00
3668;BME280;24099;47.102;15.440;2022-11-30T01:14:14;97606.44;;;2.40;100.00
3668;BME280;24099;47.102;15.440;2022-11-30T01:16:47;97609.41;;;2.36;100.00
3668;BME280;24099;47.102;15.440;2022-11-30T01:19:33;97603.63;;;2.32;100.00
3668;BME280;24099;47.102;15.440;2022-11-30T01:22:14;97609.28;;;2.26;100.00
3668;BME280;24099;47.102;15.440;2022-11-30T01:24:47;97605.66;;;2.18;100.00
3668;BME280;24099;47.102;15.440;2022-11-30T01:27:17;97607.41;;;2.28;100.00
3668;BME280;24099;47.102;15.440;2022-11-30T01:29:47;97611.19;;;2.35;100.00
3668;BME280;24099;47.102;15.440;2022-11-30T01:32:43;97607.41;;;2.39;100.00
3668;BME280;24099;47.102;15.440;2022-11-30T01:35:16;97606.34;;;2.31;100.00
3668;BME280;24099;47.102;15.440;2022-11-30T01:37:51;97607.03;;;2.33;100.00
3668;BME280;24099;47.102;15.440;2022-11-30T01:40:23;97612.72;;;2.38;100.00
3668;BME280;24099;47.102;15.440;2022-11-30T01:42:58;97610.25;;;2.36;100.00
3668;BME280;24099;47.102;15.440;2022-11-30T01:45:44;97612.72;;;2.38;100.00
3668;BME280;24099;47.102;15.440;2022-11-30T01:48:26;97614.38;;;2.39;100.00
3668;BME280;24099;47.102;15.440;2022-11-30T01:51:03;97620.50;;;2.27;100.00
3668;BME280;24099;47.102;15.440;2022-11-30T01:54:04;97618.16;;;2.35;100.00
3668;BME280;24099;47.102;15.440;2022-11-30T01:56:45;97624.06;;;2.37;100.00
3668;BME280;24099;47.102;15.440;2022-11-30T01:59:24;97630.19;;;2.36;100.00
3668;BME280;24099;47.102;15.440;2022-11-30T02:02:06;97621.22;;;2.29;100.00
3668;BME280;24099;47.102;15.440;2022-11-30T02:04:45;97616.47;;;2.23;100.00
3668;BME280;24099;47.102;15.440;2022-11-30T02:07:38;97610.81;;;2.29;100.00
3668;BME280;24099;47.102;15.440;2022-11-30T02:10:15;97614.59;;;2.36;100.00
3668;BME280;24099;47.102;15.440;2022-11-30T02:13:11;97613.91;;;2.34;100.00
3668;BME280;24099;47.102;15.440;2022-11-30T02:15:59;97614.72;;;2.34;100.00
3668;BME280;24099;47.102;15.440;2022-11-30T02:18:52;97625.09;;;2.23;100.00
3668;BME280;24099;47.102;15.440;2022-11-30T02:21:42;97620.88;;;2.11;100.00
3668;BME280;24099;47.102;15.440;2022-11-30T02:24:42;97617.91;;;2.16;100.00
3668;BME280;24099;47.102;15.440;2022-11-30T02:27:29;97623.34;;;2.13;100.00
3668;BME280;24099;47.102;15.440;2022-11-30T02:30:24;97612.22;;;2.22;100.00
3668;BME280;24099;47.102;15.440;2022-11-30T02:33:00;97605.28;;;2.22;100.00
3668;BME280;24099;47.102;15.440;2022-11-30T02:35:36;97604.41;;;2.44;100.00
3668;BME280;24099;47.102;15.440;2022-11-30T02:38:16;97595.22;;;2.40;100.00
3668;BME280;24099;47.102;15.440;2022-11-30T02:41:36;97596.38;;;2.58;100.00
3668;BME280;24099;47.102;15.440;2022-11-30T02:44:39;97596.63;;;2.55;100.00
3668;BME280;24099;47.102;15.440;2022-11-30T02:47:21;97593.06;;;2.56;100.00
3668;BME280;24099;47.102;15.440;2022-11-30T02:50:03;97592.50;;;2.41;100.00
3668;BME280;24099;47.102;15.440;2022-11-30T02:52:40;97592.25;;;2.45;100.00
3668;BME280;24099;47.102;15.440;2022-11-30T02:55:19;97591.06;;;2.60;100.00
3668;BME280;24099;47.102;15.440;2022-11-30T02:58:06;97590.13;;;2.50;100.00
3668;BME280;24099;47.102;15.440;2022-11-30T03:00:42;97595.09;;;2.41;100.00
3668;BME280;24099;47.102;15.440;2022-11-30T03:03:24;97594.53;;;2.38;100.00
3668;BME280;24099;47.102;15.440;2022-11-30T03:06:07;97600.09;;;2.33;100.00
3668;BME280;24099;47.102;15.440;2022-11-30T03:08:50;97595.81;;;2.21;100.00
3668;BME280;24099;47.102;15.440;2022-11-30T03:11:44;97603.84;;;2.29;100.00
3668;BME280;24099;47.102;15.440;2022-11-30T03:14:37;97606.56;;;2.28;100.00
3668;BME280;24099;47.102;15.440;2022-11-30T03:17:15;97608.47;;;2.26;100.00
3668;BME280;24099;47.102;15.440;2022-11-30T03:19:56;97602.56;;;2.35;100.00
3668;BME280;24099;47.102;15.440;2022-11-30T03:22:37;97603.97;;;2.39;100.00
3668;BME280;24099;47.102;15.440;2022-11-30T03:25:25;97605.50;;;2.30;100.00
3668;BME280;24099;47.102;15.440;2022-11-30T03:28:11;97608.59;;;2.35;100.00
3668;BME280;24099;47.102;15.440;2022-11-30T03:30:52;97609.41;;;2.36;100.00
3668;BME280;24099;47.102;15.440;2022-11-30T03:33:21;97602.31;;;2.38;100.00
3668;BME280;24099;47.102;15.440;2022-11-30T03:36:18;97609.41;;;2.36;100.00
3668;BME280;24099;47.102;15.440;2022-11-30T03:39:19;97605.84;;;2.48;100.00
3668;BME280;24099;47.102;15.440;2022-11-30T03:41:56;97608.19;;;2.40;100.00
3668;BME280;24099;47.102;15.440;2022-11-30T03:44:35;97606.94;;;2.34;100.00
3668;BME280;24099;47.102;15.440;2022-11-30T03:47:10;97608.81;;;2.21;100.00
3668;BME280;24099;47.102;15.440;2022-11-30T03:49:48;97621.47;;;2.15;100.00
3668;BME280;24099;47.102;15.440;2022-11-30T03:52:22;97612.50;;;2.19;100.00
3668;BME280;24099;47.102;15.440;2022-11-30T03:55:01;97621.56;;;2.24;100.00
3668;BME280;24099;47.102;15.440;2022-11-30T03:57:45;97615.91;;;2.30;100.00
3668;BME280;24099;47.102;15.440;2022-11-30T04:00:33;97613.66;;;2.26;100.00
3668;BME280;24099;47.102;15.440;2022-11-30T04:03:05;97611.28;;;2.34;100.00
3668;BME280;24099;47.102;15.440;2022-11-30T04:05:37;97616.13;;;2.38;100.00
3668;BME280;24099;47.102;15.440;2022-11-30T04:08:11;97621.44;;;2.37;100.00
3668;BME280;24099;47.102;15.440;2022-11-30T04:10:52;97620.97;;;2.32;100.00
3668;BME280;24099;47.102;15.440;2022-11-30T04:13:22;97613.56;;;2.16;100.00
3668;BME280;24099;47.102;15.440;2022-11-30T04:16:17;97612.22;;;2.22;100.00
3668;BME280;24099;47.102;15.440;2022-11-30T04:18:49;97619.31;;;2.31;100.00
3668;BME280;24099;47.102;15.440;2022-11-30T04:21:18;97611.78;;;2.39;100.00
3668;BME280;24099;47.102;15.440;2022-11-30T04:23:48;97613.41;;;2.40;100.00
3668;BME280;24099;47.102;15.440;2022-11-30T04:26:28;97617.66;;;2.30;100.00
3668;BME280;24099;47.102;15.440;2022-11-30T04:28:59;97620.28;;;2.30;100.00
3668;BME280;24099;47.102;15.440;2022-11-30T04:31:35;97611.63;;;2.40;100.00
3668;BME280;24099;47.102;15.440;2022-11-30T04:34:10;97613.53;;;2.38;100.00
3668;BME280;24099;47.102;15.440;2022-11-30T04:37:32;97614.94;;;2.42;100.00
3668;BME280;24099;47.102;15.440;2022-11-30T04:40:10;97609.28;;;2.26;100.00
3668;BME280;24099;47.102;15.440;2022-11-30T04:43:19;97608.47;;;2.37;100.00
3668;BME280;24099;47.102;15.440;2022-11-30T04:46:13;97616.13;;;2.38;100.00
3668;BME280;24099;47.102;15.440;2022-11-30T04:49:08;97619.56;;;2.28;100.00
3668;BME280;24099;47.102;15.440;2022-11-30T04:51:55;97622.63;;;2.33;100.00
3668;BME280;24099;47.102;15.440;2022-11-30T04:54:39;97626.88;;;2.34;100.00
3668;BME280;24099;47.102;15.440;2022-11-30T04:57:19;97630.66;;;2.30;100.00
3668;BME280;24099;47.102;15.440;2022-11-30T05:00:11;97633.47;;;2.27;100.00
3668;BME280;24099;47.102;15.440;2022-11-30T05:03:00;97634.66;;;2.34;100.00
3668;BME280;24099;47.102;15.440;2022-11-30T05:05:56;97643.03;;;2.49;100.00
3668;BME280;24099;47.102;15.440;2022-11-30T05:08:37;97644.81;;;2.37;100.00
3668;BME280;24099;47.102;15.440;2022-11-30T05:11:13;97648.56;;;2.44;100.00
3668;BME280;24099;47.102;15.440;2022-11-30T05:13:46;97651.28;;;2.42;100.00
3668;BME280;24099;47.102;15.440;2022-11-30T05:16:32;97650.03;;;2.37;100.00
3668;BME280;24099;47.102;15.440;2022-11-30T05:19:18;97660.41;;;2.37;100.00
3668;BME280;24099;47.102;15.440;2022-11-30T05:22:05;97655.34;;;2.35;100.00
3668;BME280;24099;47.102;15.440;2022-11-30T05:25:01;97657.22;;;2.33;100.00
3668;BME280;24099;47.102;15.440;2022-11-30T05:27:36;97664.78;;;2.36;100.00
3668;BME280;24099;47.102;15.440;2022-11-30T05:30:16;97664.06;;;2.34;100.00
3668;BME280;24099;47.102;15.440;2022-11-30T05:32:51;97670.53;;;2.40;100.00
3668;BME280;24099;47.102;15.440;2022-11-30T05:35:23;97654.16;;;2.39;100.00
3668;BME280;24099;47.102;15.440;2022-11-30T05:37:58;97654.94;;;2.40;100.00
3668;BME280;24099;47.102;15.440;2022-11-30T05:40:36;97653.31;;;2.28;100.00
3668;BME280;24099;47.102;15.440;2022-11-30T05:43:21;97659.19;;;2.41;100.00
3668;BME280;24099;47.102;15.440;2022-11-30T05:46:21;97660.38;;;2.48;100.00
3668;BME280;24099;47.102;15.440;2022-11-30T05:48:55;97662.06;;;2.38;100.00
3668;BME280;24099;47.102;15.440;2022-11-30T05:51:33;97665.22;;;2.41;100.00
3668;BME280;24099;47.102;15.440;2022-11-30T05:54:07;97666.53;;;2.36;100.00
3668;BME280;24099;47.102;15.440;2022-11-30T05:56:40;97671.25;;;2.31;100.00
3668;BME280;24099;47.102;15.440;2022-11-30T05:59:16;97667.16;;;2.39;100.00
3668;BME280;24099;47.102;15.440;2022-11-30T06:01:51;97673.72;;;2.43;100.00
3668;BME280;24099;47.102;15.440;2022-11-30T06:04:25;97666.88;;;2.42;100.00
3668;BME280;24099;47.102;15.440;2022-11-30T06:07:01;97661.34;;;2.36;100.00
3668;BME280;24099;47.102;15.440;2022-11-30T06:09:40;97667.00;;;2.41;100.00
3668;BME280;24099;47.102;15.440;2022-11-30T06:12:25;97669.03;;;2.37;100.00
3668;BME280;24099;47.102;15.440;2022-11-30T06:14:58;97667.25;;;2.27;100.00
3668;BME280;24099;47.102;15.440;2022-11-30T06:17:39;97675.50;;;2.32;100.00
3668;BME280;24099;47.102;15.440;2022-11-30T06:20:21;97679.75;;;2.33;100.00
3668;BME280;24099;47.102;15.440;2022-11-30T06:22:50;97678.34;;;2.29;100.00
3668;BME280;24099;47.102;15.440;2022-11-30T06:25:36;97686.97;;;2.29;100.00
3668;BME280;24099;47.102;15.440;2022-11-30T06:28:32;97686.28;;;2.38;100.00
3668;BME280;24099;47.102;15.440;2022-11-30T06:31:09;97678.81;;;2.45;100.00
3668;BME280;24099;47.102;15.440;2022-11-30T06:33:56;97676.31;;;2.43;100.00
3668;BME280;24099;47.102;15.440;2022-11-30T06:36:36;97684.13;;;2.43;100.00
3668;BME280;24099;47.102;15.440;2022-11-30T06:39:06;97687.56;;;2.33;100.00
3668;BME280;24099;47.102;15.440;2022-11-30T06:41:40;97687.78;;;2.41;100.00
3668;BME280;24099;47.102;15.440;2022-11-30T06:44:14;97692.97;;;2.30;100.00
3668;BME280;24099;47.102;15.440;2022-11-30T06:46:49;97687.22;;;2.37;100.00
3668;BME280;24099;47.102;15.440;2022-11-30T06:49:25;97696.28;;;2.32;100.00
3668;BME280;24099;47.102;15.440;2022-11-30T06:52:04;97696.50;;;2.40;100.00
3668;BME280;24099;47.102;15.440;2022-11-30T06:54:33;97698.88;;;2.43;100.00
3668;BME280;24099;47.102;15.440;2022-11-30T06:57:04;97699.34;;;2.48;100.00
3668;BME280;24099;47.102;15.440;2022-11-30T06:59:46;97697.94;;;2.33;100.00
3668;BME280;24099;47.102;15.440;2022-11-30T07:02:20;97706.66;;;2.43;100.00
3668;BME280;24099;47.102;15.440;2022-11-30T07:05:07;97705.16;;;2.52;100.00
3668;BME280;24099;47.102;15.440;2022-11-30T07:07:43;97701.38;;;2.56;100.00
3668;BME280;24099;47.102;15.440;2022-11-30T07:10:12;97712.72;;;2.55;100.00
3668;BME280;24099;47.102;15.440;2022-11-30T07:12:57;97716.13;;;2.55;100.00
3668;BME280;24099;47.102;15.440;2022-11-30T07:16:03;97715.53;;;2.63;100.00
3668;BME280;24099;47.102;15.440;2022-11-30T07:18:39;97712.34;;;2.59;100.00
3668;BME280;24099;47.102;15.440;2022-11-30T07:21:17;97715.19;;;2.56;100.00
3668;BME280;24099;47.102;15.440;2022-11-30T07:23:46;97716.84;;;2.57;100.00
3668;BME280;24099;47.102;15.440;2022-11-30T07:26:40;97717.31;;;2.51;100.00
3668;BME280;24099;47.102;15.440;2022-11-30T07:29:39;97721.91;;;2.48;100.00
3668;BME280;24099;47.102;15.440;2022-11-30T07:32:12;97720.97;;;2.49;100.00
3668;BME280;24099;47.102;15.440;2022-11-30T07:34:51;97722.75;;;2.59;100.00
3668;BME280;24099;47.102;15.440;2022-11-30T07:37:35;97723.44;;;2.61;100.00
3668;BME280;24099;47.102;15.440;2022-11-30T07:40:13;97724.25;;;2.62;100.00
3668;BME280;24099;47.102;15.440;2022-11-30T07:42:44;97722.38;;;2.53;100.00
3668;BME280;24099;47.102;15.440;2022-11-30T07:45:37;97729.59;;;2.49;100.00
3668;BME280;24099;47.102;15.440;2022-11-30T07:48:22;97722.72;;;2.48;100.00
3668;BME280;24099;47.102;15.440;2022-11-30T07:51:07;97721.91;;;2.36;100.00
3668;BME280;24099;47.102;15.440;2022-11-30T07:54:00;97715.53;;;2.40;100.00
3668;BME280;24099;47.102;15.440;2022-11-30T07:57:06;97720.97;;;2.49;100.00
3668;BME280;24099;47.102;15.440;2022-11-30T07:59:53;97723.94;;;2.55;100.00
3668;BME280;24099;47.102;15.440;2022-11-30T08:02:50;97717.66;;;2.58;100.00
3668;BME280;24099;47.102;15.440;2022-11-30T08:05:22;97723.19;;;2.64;100.00
3668;BME280;24099;47.102;15.440;2022-11-30T08:08:02;97722.28;;;2.54;100.00
3668;BME280;24099;47.102;15.440;2022-11-30T08:10:45;97725.34;;;2.59;100.00
3668;BME280;24099;47.102;15.440;2022-11-30T08:13:47;97724.97;;;2.53;100.00
3668;BME280;24099;47.102;15.440;2022-11-30T08:16:30;97718.03;;;2.53;100.00
3668;BME280;24099;47.102;15.440;2022-11-30T08:19:02;97717.66;;;2.35;100.00
3668;BME280;24099;47.102;15.440;2022-11-30T08:21:39;97711.88;;;2.32;100.00
3668;BME280;24099;47.102;15.440;2022-11-30T08:24:12;97721.66;;;2.28;100.00
3668;BME280;24099;47.102;15.440;2022-11-30T08:26:52;97716.00;;;2.34;100.00
3668;BME280;24099;47.102;15.440;2022-11-30T08:29:32;97724.38;;;2.27;100.00
3668;BME280;24099;47.102;15.440;2022-11-30T08:32:19;97720.97;;;2.37;100.00
3668;BME280;24099;47.102;15.440;2022-11-30T08:35:14;97722.50;;;2.51;100.00
3668;BME280;24099;47.102;15.440;2022-11-30T08:37:50;97718.38;;;2.71;100.00
3668;BME280;24099;47.102;15.440;2022-11-30T08:40:23;97720.59;;;2.64;100.00
3668;BME280;24099;47.102;15.440;2022-11-30T08:43:11;97721.06;;;2.69;100.00
3668;BME280;24099;47.102;15.440;2022-11-30T08:45:54;97725.91;;;2.63;100.00
3668;BME280;24099;47.102;15.440;2022-11-30T08:48:27;97719.88;;;2.62;100.00
3668;BME280;24099;47.102;15.440;2022-11-30T08:51:14;97727.56;;;2.64;100.00
3668;BME280;24099;47.102;15.440;2022-11-30T08:54:02;97722.63;;;2.72;100.00
3668;BME280;24099;47.102;15.440;2022-11-30T08:56:37;97727.69;;;2.73;100.00
3668;BME280;24099;47.102;15.440;2022-11-30T08:59:10;97737.50;;;2.70;100.00
3668;BME280;24099;47.102;15.440;2022-11-30T09:01:42;97729.69;;;2.81;100.00
3668;BME280;24099;47.102;15.440;2022-11-30T09:04:17;97735.22;;;2.88;100.00
3668;BME280;24099;47.102;15.440;2022-11-30T09:06:58;97740.91;;;2.93;100.00
3668;BME280;24099;47.102;15.440;2022-11-30T09:09:38;97740.16;;;3.02;100.00
3668;BME280;24099;47.102;15.440;2022-11-30T09:12:15;97737.56;;;3.13;100.00
3668;BME280;24099;47.102;15.440;2022-11-30T09:14:50;97734.16;;;2.90;100.00
3668;BME280;24099;47.102;15.440;2022-11-30T09:17:27;97734.53;;;2.97;100.00
3668;BME280;24099;47.102;15.440;2022-11-30T09:20:13;97737.59;;;2.91;100.00
3668;BME280;24099;47.102;15.440;2022-11-30T09:22:42;97735.59;;;2.94;100.00
3668;BME280;24099;47.102;15.440;2022-11-30T09:25:21;97737.84;;;2.99;100.00
3668;BME280;24099;47.102;15.440;2022-11-30T09:28:12;97729.69;;;2.81;100.00
3668;BME280;24099;47.102;15.440;2022-11-30T09:31:13;97718.22;;;2.95;100.00
3668;BME280;24099;47.102;15.440;2022-11-30T09:33:46;97723.38;;;3.06;100.00
3668;BME280;24099;47.102;15.440;2022-11-30T09:36:21;97718.53;;;3.13;100.00
3668;BME280;24099;47.102;15.440;2022-11-30T09:38:57;97721.97;;;3.13;100.00
3668;BME280;24099;47.102;15.440;2022-11-30T09:41:53;97713.94;;;3.05;100.00
3668;BME280;24099;47.102;15.440;2022-11-30T09:44:46;97717.47;;;3.04;100.00
3668;BME280;24099;47.102;15.440;2022-11-30T09:47:48;97715.69;;;3.16;100.00
3668;BME280;24099;47.102;15.440;2022-11-30T09:50:42;97719.94;;;3.17;100.00
3668;BME280;24099;47.102;15.440;2022-11-30T09:53:19;97718.88;;;3.19;100.00
3668;BME280;24099;47.102;15.440;2022-11-30T09:56:11;97717.22;;;3.18;100.00
3668;BME280;24099;47.102;15.440;2022-11-30T09:59:03;97723.09;;;3.20;100.00
3668;BME280;24099;47.102;15.440;2022-11-30T10:01:41;97709.16;;;3.21;100.00
3668;BME280;24099;47.102;15.440;2022-11-30T10:04:35;97712.47;;;3.23;100.00
3668;BME280;24099;47.102;15.440;2022-11-30T10:07:24;97706.06;;;3.27;100.00
3668;BME280;24099;47.102;15.440;2022-11-30T10:10:06;97706.06;;;3.27;100.00
3668;BME280;24099;47.102;15.440;2022-11-30T10:13:02;97706.44;;;3.23;100.00
3668;BME280;24099;47.102;15.440;2022-11-30T10:15:46;97713.16;;;3.25;100.00
3668;BME280;24099;47.102;15.440;2022-11-30T10:18:45;97709.72;;;3.36;100.00
3668;BME280;24099;47.102;15.440;2022-11-30T10:22:01;97709.47;;;3.39;100.00
3668;BME280;24099;47.102;15.440;2022-11-30T10:24:59;97699.91;;;3.28;100.00
3668;BME280;24099;47.102;15.440;2022-11-30T10:27:47;97700.25;;;3.35;100.00
3668;BME280;24099;47.102;15.440;2022-11-30T10:30:29;97707.47;;;3.31;100.00
3668;BME280;24099;47.102;15.440;2022-11-30T10:33:14;97705.59;;;3.33;100.00
3668;BME280;24099;47.102;15.440;2022-11-30T10:35:52;97705.59;;;3.33;100.00
3668;BME280;24099;47.102;15.440;2022-11-30T10:38:27;97704.41;;;3.37;100.00
3668;BME280;24099;47.102;15.440;2022-11-30T10:41:15;97702.63;;;3.38;100.00
3668;BME280;24099;47.102;15.440;2022-11-30T10:44:05;97707.69;;;3.39;100.00
3668;BME280;24099;47.102;15.440;2022-11-30T10:46:53;97704.13;;;3.40;100.00
3668;BME280;24099;47.102;15.440;2022-11-30T10:49:33;97702.63;;;3.38;100.00
3668;BME280;24099;47.102;15.440;2022-11-30T10:52:20;97707.00;;;3.37;100.00
3668;BME280;24099;47.102;15.440;2022-11-30T10:55:37;97705.34;;;3.36;100.00
3668;BME280;24099;47.102;15.440;2022-11-30T10:58:25;97701.28;;;3.43;100.00
3668;BME280;24099;47.102;15.440;2022-11-30T11:04:15;97697.78;;;3.33;100.00
3668;BME280;24099;47.102;15.440;2022-11-30T11:06:48;97695.88;;;3.35;100.00
3668;BME280;24099;47.102;15.440;2022-11-30T11:09:37;97691.69;;;3.44;100.00
3668;BME280;24099;47.102;15.440;2022-11-30T11:12:19;97696.41;;;3.50;100.00
3668;BME280;24099;47.102;15.440;2022-11-30T11:15:16;97703.25;;;3.51;100.00
3668;BME280;24099;47.102;15.440;2022-11-30T11:18:24;97697.47;;;3.47;100.00
3668;BME280;24099;47.102;15.440;2022-11-30T11:21:02;97697.47;;;3.47;100.00
3668;BME280;24099;47.102;15.440;2022-11-30T11:23:43;97692.41;;;3.46;100.00
3668;BME280;24099;47.102;15.440;2022-11-30T11:26:19;97680.56;;;3.53;100.00
3668;BME280;24099;47.102;15.440;2022-11-30T11:28:56;97693.69;;;3.52;100.00
3668;BME280;24099;47.102;15.440;2022-11-30T11:31:38;97682.94;;;3.45;100.00
3668;BME280;24099;47.102;15.440;2022-11-30T11:34:30;97685.81;;;3.63;100.00
3668;BME280;24099;47.102;15.440;2022-11-30T11:37:23;97682.94;;;3.45;100.00
3668;BME280;24099;47.102;15.440;2022-11-30T11:40:12;97685.09;;;3.40;100.00
3668;BME280;24099;47.102;15.440;2022-11-30T11:42:53;97685.78;;;3.42;100.00
3668;BME280;24099;47.102;15.440;2022-11-30T11:45:31;97686.19;;;3.37;100.00
3668;BME280;24099;47.102;15.440;2022-11-30T11:48:29;97673.44;;;3.55;100.00
3668;BME280;24099;47.102;15.440;2022-11-30T11:51:27;97673.88;;;3.39;100.00
3668;BME280;24099;47.102;15.440;2022-11-30T11:54:13;97673.69;;;3.52;100.00
3668;BME280;24099;47.102;15.440;2022-11-30T11:57:03;97670.50;;;3.49;100.00
3668;BME280;24099;47.102;15.440;2022-11-30T11:59:47;97674.53;;;3.53;100.00
3668;BME280;24099;47.102;15.440;2022-11-30T12:02:31;97668.25;;;3.55;100.00
3668;BME280;24099;47.102;15.440;2022-11-30T12:05:19;97669.06;;;3.56;100.00
3668;BME280;24099;47.102;15.440;2022-11-30T12:08:15;97672.75;;;3.53;100.00
3668;BME280;24099;47.102;15.440;2022-11-30T12:10:57;97673.13;;;3.49;100.00
3668;BME280;24099;47.102;15.440;2022-11-30T12:13:43;97670.03;;;3.55;100.00
3668;BME280;24099;47.102;15.440;2022-11-30T12:16:31;97662.47;;;3.52;100.00
3668;BME280;24099;47.102;15.440;2022-11-30T12:19:29;97662.91;;;3.57;100.00
3668;BME280;24099;47.102;15.440;2022-11-30T12:22:25;97662.50;;;3.61;100.00
3668;BME280;24099;47.102;15.440;2022-11-30T12:25:24;97664.28;;;3.61;100.00
3668;BME280;24099;47.102;15.440;2022-11-30T12:28:12;97664.03;;;3.64;100.00
3668;BME280;24099;47.102;15.440;2022-11-30T12:30:59;97661.56;;;3.62;100.00
3668;BME280;24099;47.102;15.440;2022-11-30T12:34:02;97664.69;;;3.56;100.00
3668;BME280;24099;47.102;15.440;2022-11-30T12:36:49;97664.28;;;3.61;100.00
3668;BME280;24099;47.102;15.440;2022-11-30T12:39:32;97666.41;;;3.67;100.00
3668;BME280;24099;47.102;15.440;2022-11-30T12:42:17;97669.81;;;3.67;100.00
3668;BME280;24099;47.102;15.440;2022-11-30T12:45:00;97668.53;;;3.62;100.00
3668;BME280;24099;47.102;15.440;2022-11-30T12:47:51;97658.97;;;3.62;100.00
3668;BME280;24099;47.102;15.440;2022-11-30T12:50:44;97667.84;;;3.80;100.00
3668;BME280;24099;47.102;15.440;2022-11-30T12:53:22;97661.78;;;3.70;100.00
3668;BME280;24099;47.102;15.440;2022-11-30T12:56:18;97659.28;;;3.69;100.00
3668;BME280;24099;47.102;15.440;2022-11-30T12:59:14;97664.75;;;3.66;100.00
3668;BME280;24099;47.102;15.440;2022-11-30T13:02:26;97665.00;;;3.63;100.00
3668;BME280;24099;47.102;15.440;2022-11-30T13:05:05;97647.59;;;3.63;100.00
3668;BME280;24099;47.102;15.440;2022-11-30T13:07:49;97655.97;;;3.67;100.00
3668;BME280;24099;47.102;15.440;2022-11-30T13:10:48;97651.84;;;3.64;100.00
3668;BME280;24099;47.102;15.440;2022-11-30T13:13:42;97653.06;;;3.60;100.00
3668;BME280;24099;47.102;15.440;2022-11-30T13:16:31;97653.38;;;3.67;100.00
3668;BME280;24099;47.102;15.440;2022-11-30T13:19:21;97641.31;;;3.66;100.00
3668;BME280;24099;47.102;15.440;2022-11-30T13:21:58;97646.78;;;3.63;100.00
3668;BME280;24099;47.102;15.440;2022-11-30T13:24:59;97637.88;;;3.65;100.00
3668;BME280;24099;47.102;15.440;2022-11-30T13:27:45;97639.78;;;3.63;100.00
3668;BME280;24099;47.102;15.440;2022-11-30T13:30:33;97644.75;;;3.66;100.00
3668;BME280;24099;47.102;15.440;2022-11-30T13:33:56;97637.25;;;3.94;100.00
3668;BME280;24099;47.102;15.440;2022-11-30T13:36:37;97643.78;;;3.88;100.00
3668;BME280;24099;47.102;15.440;2022-11-30T13:39:26;97637.63;;;3.68;100.00
3668;BME280;24099;47.102;15.440;2022-11-30T13:42:36;97645.19;;;3.51;100.00
3668;BME280;24099;47.102;15.440;2022-11-30T13:45:35;97644.50;;;3.49;100.00
3668;BME280;24099;47.102;15.440;2022-11-30T13:48:33;97645.78;;;3.54;100.00
3668;BME280;24099;47.102;15.440;2022-11-30T13:51:34;97645.81;;;3.64;100.00
3668;BME280;24099;47.102;15.440;2022-11-30T13:54:41;97650.31;;;3.62;100.00
3668;BME280;24099;47.102;15.440;2022-11-30T14:04:40;97652.56;;;3.66;100.00
3668;BME280;24099;47.102;15.440;2022-11-30T14:07:42;97652.44;;;3.68;100.00
3668;BME280;24099;47.102;15.440;2022-11-30T14:10:30;97650.91;;;3.65;100.00
3668;BME280;24099;47.102;15.440;2022-11-30T14:13:30;97649.81;;;3.68;100.00
3668;BME280;24099;47.102;15.440;2022-11-30T14:16:17;97651.28;;;3.61;100.00
3668;BME280;24099;47.102;15.440;2022-11-30T14:18:49;97651.72;;;3.66;100.00
3668;BME280;24099;47.102;15.440;2022-11-30T14:21:31;97650.97;;;3.54;100.00
3668;BME280;24099;47.102;15.440;2022-11-30T14:24:16;97651.84;;;3.64;100.00
3668;BME280;24099;47.102;15.440;2022-11-30T14:26:59;97645.25;;;3.60;100.00
3668;BME280;24099;47.102;15.440;2022-11-30T14:30:01;97653.84;;;3.72;100.00
3668;BME280;24099;47.102;15.440;2022-11-30T14:32:48;97657.88;;;3.65;100.00
3668;BME280;24099;47.102;15.440;2022-11-30T14:35:28;97657.59;;;3.58;100.00
3668;BME280;24099;47.102;15.440;2022-11-30T14:38:00;97651.97;;;3.63;100.00
3668;BME280;24099;47.102;15.440;2022-11-30T14:40:59;97651.84;;;3.64;100.00